sensor_id;sensor_type;location;lat;lon;timestamp;temperature;humidity
32787;DHT22;19139;49.372;8.580;2023-03-12T00:01:20;18.30;82.80
32787;DHT22;19139;49.372;8.580;2023-03-12T00:03:47;18.20;82.70
32787;DHT22;19139;49.372;8.580;2023-03-12T00:06:20;18.30;82.80
32787;DHT22;19139;49.372;8.580;2023-03-12T00:08:48;18.20;82.70
32787;DHT22;19139;49.372;8.580;2023-03-12T00:11:20;18.20;82.70
32787;DHT22;19139;49.372;8.580;2023-03-12T00:13:53;18.30;82.70
32787;DHT22;19139;49.372;8.580;2023-03-12T00:16:20;18.20;82.70
32787;DHT22;19139;49.372;8.580;2023-03-12T00:18:49;18.20;82.70
32787;DHT22;19139;49.372;8.580;2023-03-12T00:21:21;18.20;82.70
32787;DHT22;19139;49.372;8.580;2023-03-12T00:23:51;18.20;82.70
32787;DHT22;19139;49.372;8.580;2023-03-12T00:26:19;18.20;82.70
32787;DHT22;19139;49.372;8.580;2023-03-12T00:28:51;18.20;82.70
32787;DHT22;19139;49.372;8.580;2023-03-12T00:31:26;18.20;82.70
32787;DHT22;19139;49.372;8.580;2023-03-12T00:34:00;18.20;82.80
32787;DHT22;19139;49.372;8.580;2023-03-12T00:36:30;18.20;82.70
32787;DHT22;19139;49.372;8.580;2023-03-12T00:38:58;18.20;82.70
32787;DHT22;19139;49.372;8.580;2023-03-12T00:41:30;18.20;82.70
32787;DHT22;19139;49.372;8.580;2023-03-12T00:44:01;18.20;82.70
32787;DHT22;19139;49.372;8.580;2023-03-12T00:46:28;18.20;82.70
32787;DHT22;19139;49.372;8.580;2023-03-12T00:49:00;18.20;82.70
32787;DHT22;19139;49.372;8.580;2023-03-12T00:51:31;18.20;82.70
32787;DHT22;19139;49.372;8.580;2023-03-12T00:53:58;18.20;82.70
32787;DHT22;19139;49.372;8.580;2023-03-12T00:56:29;18.20;82.70
32787;DHT22;19139;49.372;8.580;2023-03-12T00:59:01;18.20;82.70
32787;DHT22;19139;49.372;8.580;2023-03-12T01:01:27;18.20;82.70
32787;DHT22;19139;49.372;8.580;2023-03-12T01:03:59;18.20;82.70
32787;DHT22;19139;49.372;8.580;2023-03-12T01:06:30;18.20;83.50
32787;DHT22;19139;49.372;8.580;2023-03-12T01:08:57;18.20;82.70
32787;DHT22;19139;49.372;8.580;2023-03-12T01:11:28;18.20;82.70
32787;DHT22;19139;49.372;8.580;2023-03-12T01:14:03;18.20;82.70
32787;DHT22;19139;49.372;8.580;2023-03-12T01:16:30;18.20;82.70
32787;DHT22;19139;49.372;8.580;2023-03-12T01:18:58;18.20;82.70
32787;DHT22;19139;49.372;8.580;2023-03-12T01:21:30;18.10;82.60
32787;DHT22;19139;49.372;8.580;2023-03-12T01:23:58;18.20;82.70
32787;DHT22;19139;49.372;8.580;2023-03-12T01:26:29;18.10;82.60
32787;DHT22;19139;49.372;8.580;2023-03-12T01:29:01;18.20;82.60
32787;DHT22;19139;49.372;8.580;2023-03-12T01:31:27;18.20;82.70
32787;DHT22;19139;49.372;8.580;2023-03-12T01:33:59;18.10;82.60
32787;DHT22;19139;49.372;8.580;2023-03-12T01:36:30;18.20;82.70
32787;DHT22;19139;49.372;8.580;2023-03-12T01:38:58;18.20;82.60
32787;DHT22;19139;49.372;8.580;2023-03-12T01:41:30;18.20;82.60
32787;DHT22;19139;49.372;8.580;2023-03-12T01:44:01;18.10;82.50
32787;DHT22;19139;49.372;8.580;2023-03-12T01:46:39;18.10;82.50
32787;DHT22;19139;49.372;8.580;2023-03-12T01:49:12;18.10;82.60
32787;DHT22;19139;49.372;8.580;2023-03-12T01:52:02;18.10;82.50
32787;DHT22;19139;49.372;8.580;2023-03-12T01:54:43;18.10;82.50
32787;DHT22;19139;49.372;8.580;2023-03-12T01:57:13;18.10;82.50
32787;DHT22;19139;49.372;8.580;2023-03-12T01:59:44;18.10;82.50
32787;DHT22;19139;49.372;8.580;2023-03-12T02:02:13;18.10;82.50
32787;DHT22;19139;49.372;8.580;2023-03-12T02:04:42;18.10;82.50
32787;DHT22;19139;49.372;8.580;2023-03-12T02:07:12;18.10;82.50
32787;DHT22;19139;49.372;8.580;2023-03-12T02:09:41;18.10;82.50
32787;DHT22;19139;49.372;8.580;2023-03-12T02:12:10;18.10;82.50
32787;DHT22;19139;49.372;8.580;2023-03-12T02:14:37;18.10;82.50
32787;DHT22;19139;49.372;8.580;2023-03-12T02:17:09;18.10;82.50
32787;DHT22;19139;49.372;8.580;2023-03-12T02:20:03;18.10;82.50
32787;DHT22;19139;49.372;8.580;2023-03-12T02:22:40;18.10;82.50
32787;DHT22;19139;49.372;8.580;2023-03-12T02:28:20;18.10;82.50
32787;DHT22;19139;49.372;8.580;2023-03-12T02:30:50;18.10;82.50
32787;DHT22;19139;49.372;8.580;2023-03-12T02:33:18;18.10;82.50
32787;DHT22;19139;49.372;8.580;2023-03-12T02:35:51;18.10;82.50
32787;DHT22;19139;49.372;8.580;2023-03-12T02:41:03;18.10;82.50
32787;DHT22;19139;49.372;8.580;2023-03-12T02:43:30;18.10;82.50
32787;DHT22;19139;49.372;8.580;2023-03-12T02:45:57;18.10;82.50
32787;DHT22;19139;49.372;8.580;2023-03-12T02:48:29;18.10;82.50
32787;DHT22;19139;49.372;8.580;2023-03-12T02:51:01;18.00;82.50
32787;DHT22;19139;49.372;8.580;2023-03-12T02:53:28;18.00;82.40
32787;DHT22;19139;49.372;8.580;2023-03-12T02:56:00;18.10;82.50
32787;DHT22;19139;49.372;8.580;2023-03-12T02:58:27;18.10;82.50
32787;DHT22;19139;49.372;8.580;2023-03-12T03:00:58;18.00;82.40
32787;DHT22;19139;49.372;8.580;2023-03-12T03:03:30;18.10;82.50
32787;DHT22;19139;49.372;8.580;2023-03-12T03:05:56;18.00;82.40
32787;DHT22;19139;49.372;8.580;2023-03-12T03:08:28;18.00;82.40
32787;DHT22;19139;49.372;8.580;2023-03-12T03:10:59;18.10;82.50
32787;DHT22;19139;49.372;8.580;2023-03-12T03:13:29;18.10;82.50
32787;DHT22;19139;49.372;8.580;2023-03-12T03:16:00;18.10;82.40
32787;DHT22;19139;49.372;8.580;2023-03-12T03:18:28;18.10;82.40
32787;DHT22;19139;49.372;8.580;2023-03-12T03:21:03;18.10;82.40
32787;DHT22;19139;49.372;8.580;2023-03-12T03:23:31;18.00;82.30
32787;DHT22;19139;49.372;8.580;2023-03-12T03:25:58;18.00;82.40
32787;DHT22;19139;49.372;8.580;2023-03-12T03:28:30;18.00;82.40
32787;DHT22;19139;49.372;8.580;2023-03-12T03:31:01;18.00;82.40
32787;DHT22;19139;49.372;8.580;2023-03-12T03:33:31;18.00;82.40
32787;DHT22;19139;49.372;8.580;2023-03-12T03:35:58;18.00;82.40
32787;DHT22;19139;49.372;8.580;2023-03-12T03:38:27;18.00;82.40
32787;DHT22;19139;49.372;8.580;2023-03-12T03:40:54;18.00;82.40
32787;DHT22;19139;49.372;8.580;2023-03-12T03:43:22;18.00;82.40
32787;DHT22;19139;49.372;8.580;2023-03-12T03:45:56;18.00;82.40
32787;DHT22;19139;49.372;8.580;2023-03-12T03:48:23;18.00;82.40
32787;DHT22;19139;49.372;8.580;2023-03-12T03:50:49;18.00;82.40
32787;DHT22;19139;49.372;8.580;2023-03-12T03:53:16;18.00;82.40
32787;DHT22;19139;49.372;8.580;2023-03-12T03:55:45;18.00;82.40
32787;DHT22;19139;49.372;8.580;2023-03-12T03:58:12;18.00;82.30
32787;DHT22;19139;49.372;8.580;2023-03-12T04:00:39;18.00;82.40
32787;DHT22;19139;49.372;8.580;2023-03-12T04:03:05;18.00;82.40
32787;DHT22;19139;49.372;8.580;2023-03-12T04:05:32;18.00;82.30
32787;DHT22;19139;49.372;8.580;2023-03-12T04:07:58;18.00;82.40
32787;DHT22;19139;49.372;8.580;2023-03-12T04:10:29;18.00;82.40
32787;DHT22;19139;49.372;8.580;2023-03-12T04:12:56;18.00;82.40
32787;DHT22;19139;49.372;8.580;2023-03-12T04:15:22;18.00;82.40
32787;DHT22;19139;49.372;8.580;2023-03-12T04:17:49;18.00;82.40
32787;DHT22;19139;49.372;8.580;2023-03-12T04:20:16;18.00;82.40
32787;DHT22;19139;49.372;8.580;2023-03-12T04:22:43;18.00;82.40
32787;DHT22;19139;49.372;8.580;2023-03-12T04:25:09;18.00;82.30
32787;DHT22;19139;49.372;8.580;2023-03-12T04:27:36;18.00;82.30
32787;DHT22;19139;49.372;8.580;2023-03-12T04:30:04;18.00;82.30
32787;DHT22;19139;49.372;8.580;2023-03-12T04:32:30;18.00;82.40
32787;DHT22;19139;49.372;8.580;2023-03-12T04:34:57;18.00;82.30
32787;DHT22;19139;49.372;8.580;2023-03-12T04:37:24;18.00;82.30
32787;DHT22;19139;49.372;8.580;2023-03-12T04:39:50;17.90;82.30
32787;DHT22;19139;49.372;8.580;2023-03-12T04:42:17;17.90;82.20
32787;DHT22;19139;49.372;8.580;2023-03-12T04:44:43;18.00;82.30
32787;DHT22;19139;49.372;8.580;2023-03-12T04:47:15;17.90;82.20
32787;DHT22;19139;49.372;8.580;2023-03-12T04:49:41;18.00;82.30
32787;DHT22;19139;49.372;8.580;2023-03-12T04:52:08;18.00;82.30
32787;DHT22;19139;49.372;8.580;2023-03-12T04:54:35;18.00;82.30
32787;DHT22;19139;49.372;8.580;2023-03-12T04:57:02;17.90;82.40
32787;DHT22;19139;49.372;8.580;2023-03-12T04:59:29;18.00;82.30
32787;DHT22;19139;49.372;8.580;2023-03-12T05:01:56;18.00;82.30
32787;DHT22;19139;49.372;8.580;2023-03-12T05:04:22;18.00;82.40
32787;DHT22;19139;49.372;8.580;2023-03-12T05:06:49;18.00;82.30
32787;DHT22;19139;49.372;8.580;2023-03-12T05:09:15;17.90;82.20
32787;DHT22;19139;49.372;8.580;2023-03-12T05:11:42;17.90;82.20
32787;DHT22;19139;49.372;8.580;2023-03-12T05:14:10;17.90;82.30
32787;DHT22;19139;49.372;8.580;2023-03-12T05:16:37;18.00;82.30
32787;DHT22;19139;49.372;8.580;2023-03-12T05:19:04;18.00;82.30
32787;DHT22;19139;49.372;8.580;2023-03-12T05:21:30;17.90;82.30
32787;DHT22;19139;49.372;8.580;2023-03-12T05:23:58;17.90;82.30
32787;DHT22;19139;49.372;8.580;2023-03-12T05:26:29;17.90;82.20
32787;DHT22;19139;49.372;8.580;2023-03-12T05:28:58;17.90;83.10
32787;DHT22;19139;49.372;8.580;2023-03-12T05:31:25;17.90;82.30
32787;DHT22;19139;49.372;8.580;2023-03-12T05:33:52;17.90;82.20
32787;DHT22;19139;49.372;8.580;2023-03-12T05:36:20;17.90;82.20
32787;DHT22;19139;49.372;8.580;2023-03-12T05:38:46;17.90;82.20
32787;DHT22;19139;49.372;8.580;2023-03-12T05:41:22;17.90;82.20
32787;DHT22;19139;49.372;8.580;2023-03-12T05:43:50;17.90;82.20
32787;DHT22;19139;49.372;8.580;2023-03-12T05:46:17;17.90;82.20
32787;DHT22;19139;49.372;8.580;2023-03-12T05:48:44;17.90;82.20
32787;DHT22;19139;49.372;8.580;2023-03-12T05:51:11;17.90;82.20
32787;DHT22;19139;49.372;8.580;2023-03-12T05:53:37;17.90;82.20
32787;DHT22;19139;49.372;8.580;2023-03-12T05:56:06;17.90;82.20
32787;DHT22;19139;49.372;8.580;2023-03-12T05:58:34;17.90;82.20
32787;DHT22;19139;49.372;8.580;2023-03-12T06:01:01;17.90;82.20
32787;DHT22;19139;49.372;8.580;2023-03-12T06:03:28;17.90;82.20
32787;DHT22;19139;49.372;8.580;2023-03-12T06:05:54;17.90;82.20
32787;DHT22;19139;49.372;8.580;2023-03-12T06:08:23;17.90;82.20
32787;DHT22;19139;49.372;8.580;2023-03-12T06:10:54;17.90;82.20
32787;DHT22;19139;49.372;8.580;2023-03-12T06:13:21;17.90;82.20
32787;DHT22;19139;49.372;8.580;2023-03-12T06:15:48;17.90;82.20
32787;DHT22;19139;49.372;8.580;2023-03-12T06:18:15;17.90;82.20
32787;DHT22;19139;49.372;8.580;2023-03-12T06:20:42;17.90;82.20
32787;DHT22;19139;49.372;8.580;2023-03-12T06:23:08;17.90;82.20
32787;DHT22;19139;49.372;8.580;2023-03-12T06:25:35;17.90;82.20
32787;DHT22;19139;49.372;8.580;2023-03-12T06:28:02;17.90;82.20
32787;DHT22;19139;49.372;8.580;2023-03-12T06:30:28;17.90;82.20
32787;DHT22;19139;49.372;8.580;2023-03-12T06:32:55;17.90;82.20
32787;DHT22;19139;49.372;8.580;2023-03-12T06:35:21;17.90;82.20
32787;DHT22;19139;49.372;8.580;2023-03-12T06:37:48;17.90;82.20
32787;DHT22;19139;49.372;8.580;2023-03-12T06:40:15;17.90;82.20
32787;DHT22;19139;49.372;8.580;2023-03-12T06:42:41;17.80;82.20
32787;DHT22;19139;49.372;8.580;2023-03-12T06:45:08;17.90;82.20
32787;DHT22;19139;49.372;8.580;2023-03-12T06:47:35;17.90;82.20
32787;DHT22;19139;49.372;8.580;2023-03-12T06:50:02;17.90;82.90
32787;DHT22;19139;49.372;8.580;2023-03-12T06:52:28;17.90;82.20
32787;DHT22;19139;49.372;8.580;2023-03-12T06:54:55;17.90;82.20
32787;DHT22;19139;49.372;8.580;2023-03-12T06:57:21;17.90;82.20
32787;DHT22;19139;49.372;8.580;2023-03-12T06:59:48;17.90;82.20
32787;DHT22;19139;49.372;8.580;2023-03-12T07:02:16;17.90;82.20
32787;DHT22;19139;49.372;8.580;2023-03-12T07:04:43;17.90;82.20
32787;DHT22;19139;49.372;8.580;2023-03-12T07:07:14;17.90;82.20
32787;DHT22;19139;49.372;8.580;2023-03-12T07:09:42;17.90;82.20
32787;DHT22;19139;49.372;8.580;2023-03-12T07:12:09;17.80;82.10
32787;DHT22;19139;49.372;8.580;2023-03-12T07:14:35;17.80;82.20
32787;DHT22;19139;49.372;8.580;2023-03-12T07:17:02;17.90;82.20
32787;DHT22;19139;49.372;8.580;2023-03-12T07:19:34;17.90;82.20
32787;DHT22;19139;49.372;8.580;2023-03-12T07:22:01;17.90;82.20
32787;DHT22;19139;49.372;8.580;2023-03-12T07:24:27;17.90;82.20
32787;DHT22;19139;49.372;8.580;2023-03-12T07:26:54;17.90;82.20
32787;DHT22;19139;49.372;8.580;2023-03-12T07:29:20;17.80;82.10
32787;DHT22;19139;49.372;8.580;2023-03-12T07:31:47;17.90;82.20
32787;DHT22;19139;49.372;8.580;2023-03-12T07:34:14;17.90;82.20
32787;DHT22;19139;49.372;8.580;2023-03-12T07:36:41;17.90;82.20
32787;DHT22;19139;49.372;8.580;2023-03-12T07:39:07;17.90;82.20
32787;DHT22;19139;49.372;8.580;2023-03-12T07:41:34;17.80;82.00
32787;DHT22;19139;49.372;8.580;2023-03-12T07:44:02;17.90;82.20
32787;DHT22;19139;49.372;8.580;2023-03-12T07:46:34;17.90;82.10
32787;DHT22;19139;49.372;8.580;2023-03-12T07:49:01;17.90;82.20
32787;DHT22;19139;49.372;8.580;2023-03-12T07:51:27;17.90;82.20
32787;DHT22;19139;49.372;8.580;2023-03-12T07:53:54;17.80;82.00
32787;DHT22;19139;49.372;8.580;2023-03-12T07:56:20;17.80;82.10
32787;DHT22;19139;49.372;8.580;2023-03-12T07:58:47;17.80;82.00
32787;DHT22;19139;49.372;8.580;2023-03-12T08:01:14;17.90;82.20
32787;DHT22;19139;49.372;8.580;2023-03-12T08:03:41;17.90;82.20
32787;DHT22;19139;49.372;8.580;2023-03-12T08:06:13;17.90;82.20
32787;DHT22;19139;49.372;8.580;2023-03-12T08:08:39;17.90;82.20
32787;DHT22;19139;49.372;8.580;2023-03-12T08:11:08;17.90;82.20
32787;DHT22;19139;49.372;8.580;2023-03-12T08:13:35;18.00;82.40
32787;DHT22;19139;49.372;8.580;2023-03-12T08:16:01;18.00;82.50
32787;DHT22;19139;49.372;8.580;2023-03-12T08:18:33;18.00;82.70
32787;DHT22;19139;49.372;8.580;2023-03-12T08:21:05;18.00;82.90
32787;DHT22;19139;49.372;8.580;2023-03-12T08:23:32;18.00;83.00
32787;DHT22;19139;49.372;8.580;2023-03-12T08:26:03;18.10;83.30
32787;DHT22;19139;49.372;8.580;2023-03-12T08:28:35;18.10;83.20
32787;DHT22;19139;49.372;8.580;2023-03-12T08:31:01;18.10;83.40
32787;DHT22;19139;49.372;8.580;2023-03-12T08:33:34;18.00;83.50
32787;DHT22;19139;49.372;8.580;2023-03-12T08:36:00;18.10;83.50
32787;DHT22;19139;49.372;8.580;2023-03-12T08:38:32;18.10;83.70
32787;DHT22;19139;49.372;8.580;2023-03-12T08:41:03;18.10;83.70
32787;DHT22;19139;49.372;8.580;2023-03-12T08:43:35;18.10;83.90
32787;DHT22;19139;49.372;8.580;2023-03-12T08:46:02;18.10;84.00
32787;DHT22;19139;49.372;8.580;2023-03-12T08:48:30;18.10;84.00
32787;DHT22;19139;49.372;8.580;2023-03-12T08:51:02;18.10;84.10
32787;DHT22;19139;49.372;8.580;2023-03-12T08:53:35;18.20;84.30
32787;DHT22;19139;49.372;8.580;2023-03-12T08:56:03;18.10;84.30
32787;DHT22;19139;49.372;8.580;2023-03-12T08:58:34;18.20;84.40
32787;DHT22;19139;49.372;8.580;2023-03-12T09:01:01;18.20;84.50
32787;DHT22;19139;49.372;8.580;2023-03-12T09:03:32;18.20;85.40
32787;DHT22;19139;49.372;8.580;2023-03-12T09:06:09;18.10;84.70
32787;DHT22;19139;49.372;8.580;2023-03-12T09:08:43;18.10;84.80
32787;DHT22;19139;49.372;8.580;2023-03-12T09:11:12;18.10;84.80
32787;DHT22;19139;49.372;8.580;2023-03-12T09:13:40;18.10;84.90
32787;DHT22;19139;49.372;8.580;2023-03-12T09:16:27;18.20;84.90
32787;DHT22;19139;49.372;8.580;2023-03-12T09:18:54;18.20;84.90
32787;DHT22;19139;49.372;8.580;2023-03-12T09:21:20;18.20;84.70
32787;DHT22;19139;49.372;8.580;2023-03-12T09:23:47;18.20;84.60
32787;DHT22;19139;49.372;8.580;2023-03-12T09:26:14;18.10;84.50
32787;DHT22;19139;49.372;8.580;2023-03-12T09:28:46;18.10;84.50
32787;DHT22;19139;49.372;8.580;2023-03-12T09:31:13;18.10;84.30
32787;DHT22;19139;49.372;8.580;2023-03-12T09:33:40;18.10;84.30
32787;DHT22;19139;49.372;8.580;2023-03-12T09:36:12;18.20;84.30
32787;DHT22;19139;49.372;8.580;2023-03-12T09:38:43;18.10;84.20
32787;DHT22;19139;49.372;8.580;2023-03-12T09:41:18;18.10;84.10
32787;DHT22;19139;49.372;8.580;2023-03-12T09:43:54;18.10;84.10
32787;DHT22;19139;49.372;8.580;2023-03-12T09:46:27;18.10;84.00
32787;DHT22;19139;49.372;8.580;2023-03-12T09:49:04;18.10;83.90
32787;DHT22;19139;49.372;8.580;2023-03-12T09:51:40;18.10;83.90
32787;DHT22;19139;49.372;8.580;2023-03-12T09:54:35;18.10;83.90
32787;DHT22;19139;49.372;8.580;2023-03-12T09:57:12;18.10;83.90
32787;DHT22;19139;49.372;8.580;2023-03-12T09:59:44;18.10;83.80
32787;DHT22;19139;49.372;8.580;2023-03-12T10:02:43;18.20;84.00
32787;DHT22;19139;49.372;8.580;2023-03-12T10:10:52;18.20;85.30
32787;DHT22;19139;49.372;8.580;2023-03-12T10:18:56;18.20;84.80
32787;DHT22;19139;49.372;8.580;2023-03-12T10:21:32;18.20;84.90
32787;DHT22;19139;49.372;8.580;2023-03-12T10:26:57;18.30;85.00
32787;DHT22;19139;49.372;8.580;2023-03-12T10:29:30;18.30;85.00
32787;DHT22;19139;49.372;8.580;2023-03-12T10:31:59;18.30;85.10
32787;DHT22;19139;49.372;8.580;2023-03-12T10:34:43;18.30;86.00
32787;DHT22;19139;49.372;8.580;2023-03-12T10:37:20;18.30;85.20
32787;DHT22;19139;49.372;8.580;2023-03-12T10:39:49;18.30;85.40
32787;DHT22;19139;49.372;8.580;2023-03-12T10:42:19;18.30;85.40
32787;DHT22;19139;49.372;8.580;2023-03-12T10:44:52;18.40;85.40
32787;DHT22;19139;49.372;8.580;2023-03-12T10:49:53;18.40;85.50
32787;DHT22;19139;49.372;8.580;2023-03-12T10:52:22;18.40;85.50
32787;DHT22;19139;49.372;8.580;2023-03-12T10:54:50;18.40;85.60
32787;DHT22;19139;49.372;8.580;2023-03-12T10:57:18;18.40;85.70
32787;DHT22;19139;49.372;8.580;2023-03-12T10:59:47;18.40;85.70
32787;DHT22;19139;49.372;8.580;2023-03-12T11:04:57;17.40;82.30
32787;DHT22;19139;49.372;8.580;2023-03-12T11:07:32;16.90;83.20
32787;DHT22;19139;49.372;8.580;2023-03-12T11:12:33;16.70;82.50
32787;DHT22;19139;49.372;8.580;2023-03-12T11:20:52;16.30;83.00
32787;DHT22;19139;49.372;8.580;2023-03-12T11:23:28;16.30;83.20
32787;DHT22;19139;49.372;8.580;2023-03-12T11:25:59;16.20;83.40
32787;DHT22;19139;49.372;8.580;2023-03-12T11:28:36;16.20;83.70
32787;DHT22;19139;49.372;8.580;2023-03-12T11:31:07;16.60;83.80
32787;DHT22;19139;49.372;8.580;2023-03-12T11:33:35;16.90;84.00
32787;DHT22;19139;49.372;8.580;2023-03-12T11:36:25;17.10;84.00
32787;DHT22;19139;49.372;8.580;2023-03-12T11:44:55;17.60;83.70
32787;DHT22;19139;49.372;8.580;2023-03-12T12:09:56;18.10;84.50
32787;DHT22;19139;49.372;8.580;2023-03-12T12:15:34;18.20;84.80
32787;DHT22;19139;49.372;8.580;2023-03-12T12:18:34;18.20;84.80
32787;DHT22;19139;49.372;8.580;2023-03-12T12:21:11;18.20;84.90
32787;DHT22;19139;49.372;8.580;2023-03-12T12:24:18;18.30;84.90
32787;DHT22;19139;49.372;8.580;2023-03-12T12:27:14;18.30;84.90
32787;DHT22;19139;49.372;8.580;2023-03-12T12:33:07;18.30;84.70
32787;DHT22;19139;49.372;8.580;2023-03-12T12:35:45;18.30;84.50
32787;DHT22;19139;49.372;8.580;2023-03-12T12:38:33;18.30;84.40
32787;DHT22;19139;49.372;8.580;2023-03-12T12:41:10;18.30;84.30
32787;DHT22;19139;49.372;8.580;2023-03-12T12:43:48;18.30;84.30
32787;DHT22;19139;49.372;8.580;2023-03-12T12:46:25;18.40;84.20
32787;DHT22;19139;49.372;8.580;2023-03-12T12:49:10;18.40;84.10
32787;DHT22;19139;49.372;8.580;2023-03-12T12:51:48;18.40;84.00
32787;DHT22;19139;49.372;8.580;2023-03-12T12:55:09;18.40;84.00
32787;DHT22;19139;49.372;8.580;2023-03-12T13:00:18;18.30;83.90
32787;DHT22;19139;49.372;8.580;2023-03-12T13:02:47;18.40;84.00
32787;DHT22;19139;49.372;8.580;2023-03-12T13:07:55;18.30;84.00
32787;DHT22;19139;49.372;8.580;2023-03-12T13:13:12;18.30;83.90
32787;DHT22;19139;49.372;8.580;2023-03-12T13:15:43;18.30;83.90
32787;DHT22;19139;49.372;8.580;2023-03-12T13:18:20;18.30;83.90
32787;DHT22;19139;49.372;8.580;2023-03-12T13:26:08;18.30;83.80
32787;DHT22;19139;49.372;8.580;2023-03-12T13:36:45;18.40;83.60
32787;DHT22;19139;49.372;8.580;2023-03-12T13:39:32;18.40;83.60
32787;DHT22;19139;49.372;8.580;2023-03-12T13:44:54;18.50;83.40
32787;DHT22;19139;49.372;8.580;2023-03-12T13:47:33;18.60;83.50
32787;DHT22;19139;49.372;8.580;2023-03-12T13:50:11;18.50;83.40
32787;DHT22;19139;49.372;8.580;2023-03-12T13:52:49;18.50;83.40
32787;DHT22;19139;49.372;8.580;2023-03-12T13:55:30;18.60;83.60
32787;DHT22;19139;49.372;8.580;2023-03-12T13:58:08;18.60;83.70
32787;DHT22;19139;49.372;8.580;2023-03-12T14:00:54;18.60;84.20
32787;DHT22;19139;49.372;8.580;2023-03-12T14:03:36;18.70;84.70
32787;DHT22;19139;49.372;8.580;2023-03-12T14:06:12;18.60;84.40
32787;DHT22;19139;49.372;8.580;2023-03-12T14:11:56;18.60;84.40
32787;DHT22;19139;49.372;8.580;2023-03-12T14:17:27;18.60;84.50
32787;DHT22;19139;49.372;8.580;2023-03-12T14:19:56;18.60;84.40
32787;DHT22;19139;49.372;8.580;2023-03-12T14:22:28;18.60;84.40
32787;DHT22;19139;49.372;8.580;2023-03-12T14:28:25;18.50;84.20
32787;DHT22;19139;49.372;8.580;2023-03-12T14:31:17;18.60;84.30
32787;DHT22;19139;49.372;8.580;2023-03-12T14:36:54;18.50;84.20
32787;DHT22;19139;49.372;8.580;2023-03-12T14:39:33;18.60;84.20
32787;DHT22;19139;49.372;8.580;2023-03-12T14:42:06;18.60;84.00
32787;DHT22;19139;49.372;8.580;2023-03-12T14:44:36;18.60;84.00
32787;DHT22;19139;49.372;8.580;2023-03-12T14:47:06;18.60;84.00
32787;DHT22;19139;49.372;8.580;2023-03-12T14:49:45;18.60;84.00
32787;DHT22;19139;49.372;8.580;2023-03-12T14:52:25;18.50;84.00
32787;DHT22;19139;49.372;8.580;2023-03-12T14:54:55;18.60;84.00
32787;DHT22;19139;49.372;8.580;2023-03-12T14:57:27;18.60;84.00
32787;DHT22;19139;49.372;8.580;2023-03-12T14:59:58;18.60;84.00
32787;DHT22;19139;49.372;8.580;2023-03-12T15:02:27;18.60;84.00
32787;DHT22;19139;49.372;8.580;2023-03-12T15:04:57;18.60;84.00
32787;DHT22;19139;49.372;8.580;2023-03-12T15:07:31;18.60;84.00
32787;DHT22;19139;49.372;8.580;2023-03-12T15:10:14;18.60;83.90
32787;DHT22;19139;49.372;8.580;2023-03-12T15:12:47;18.60;83.90
32787;DHT22;19139;49.372;8.580;2023-03-12T15:15:38;18.60;84.00
32787;DHT22;19139;49.372;8.580;2023-03-12T15:18:29;18.50;83.90
32787;DHT22;19139;49.372;8.580;2023-03-12T15:21:01;18.60;84.00
32787;DHT22;19139;49.372;8.580;2023-03-12T15:23:35;18.50;83.90
32787;DHT22;19139;49.372;8.580;2023-03-12T15:28:54;18.50;84.00
32787;DHT22;19139;49.372;8.580;2023-03-12T15:31:27;18.50;84.00
32787;DHT22;19139;49.372;8.580;2023-03-12T15:34:05;18.50;84.00
32787;DHT22;19139;49.372;8.580;2023-03-12T15:36:33;18.50;83.90
32787;DHT22;19139;49.372;8.580;2023-03-12T15:39:29;18.50;84.00
32787;DHT22;19139;49.372;8.580;2023-03-12T15:42:08;18.50;83.80
32787;DHT22;19139;49.372;8.580;2023-03-12T15:44:46;18.60;83.90
32787;DHT22;19139;49.372;8.580;2023-03-12T15:47:16;18.60;83.80
32787;DHT22;19139;49.372;8.580;2023-03-12T15:53:02;18.50;83.80
32787;DHT22;19139;49.372;8.580;2023-03-12T15:55:34;18.50;83.90
32787;DHT22;19139;49.372;8.580;2023-03-12T15:58:41;18.50;83.80
32787;DHT22;19139;49.372;8.580;2023-03-12T16:01:15;18.50;83.80
32787;DHT22;19139;49.372;8.580;2023-03-12T16:03:44;18.50;83.80
32787;DHT22;19139;49.372;8.580;2023-03-12T16:06:20;18.60;83.90
32787;DHT22;19139;49.372;8.580;2023-03-12T16:09:00;18.50;83.80
32787;DHT22;19139;49.372;8.580;2023-03-12T16:11:31;18.50;83.80
32787;DHT22;19139;49.372;8.580;2023-03-12T16:16:43;18.50;83.90
32787;DHT22;19139;49.372;8.580;2023-03-12T16:19:17;18.50;83.70
32787;DHT22;19139;49.372;8.580;2023-03-12T16:21:44;18.50;83.80
32787;DHT22;19139;49.372;8.580;2023-03-12T16:24:16;18.50;83.70
32787;DHT22;19139;49.372;8.580;2023-03-12T16:26:49;18.60;83.80
32787;DHT22;19139;49.372;8.580;2023-03-12T16:29:16;18.50;83.70
32787;DHT22;19139;49.372;8.580;2023-03-12T16:31:44;18.50;83.80
32787;DHT22;19139;49.372;8.580;2023-03-12T16:34:13;18.50;83.80
32787;DHT22;19139;49.372;8.580;2023-03-12T16:36:44;18.50;83.70
32787;DHT22;19139;49.372;8.580;2023-03-12T16:39:16;18.50;83.70
32787;DHT22;19139;49.372;8.580;2023-03-12T16:41:44;18.50;83.60
32787;DHT22;19139;49.372;8.580;2023-03-12T16:44:18;18.50;83.60
32787;DHT22;19139;49.372;8.580;2023-03-12T16:46:46;18.50;83.70
32787;DHT22;19139;49.372;8.580;2023-03-12T16:49:15;18.50;83.60
32787;DHT22;19139;49.372;8.580;2023-03-12T16:51:43;18.50;83.60
32787;DHT22;19139;49.372;8.580;2023-03-12T16:54:14;18.50;83.60
32787;DHT22;19139;49.372;8.580;2023-03-12T16:56:46;18.50;83.60
32787;DHT22;19139;49.372;8.580;2023-03-12T16:59:26;18.40;83.60
32787;DHT22;19139;49.372;8.580;2023-03-12T17:01:59;18.40;83.60
32787;DHT22;19139;49.372;8.580;2023-03-12T17:04:30;18.50;83.80
32787;DHT22;19139;49.372;8.580;2023-03-12T17:07:02;18.40;83.70
32787;DHT22;19139;49.372;8.580;2023-03-12T17:09:33;18.50;83.70
32787;DHT22;19139;49.372;8.580;2023-03-12T17:12:08;18.50;83.60
32787;DHT22;19139;49.372;8.580;2023-03-12T17:14:46;18.50;83.60
32787;DHT22;19139;49.372;8.580;2023-03-12T17:17:18;18.50;83.60
32787;DHT22;19139;49.372;8.580;2023-03-12T17:19:49;18.50;83.60
32787;DHT22;19139;49.372;8.580;2023-03-12T17:22:22;18.50;83.60
32787;DHT22;19139;49.372;8.580;2023-03-12T17:24:50;18.50;83.80
32787;DHT22;19139;49.372;8.580;2023-03-12T17:27:16;18.60;84.20
32787;DHT22;19139;49.372;8.580;2023-03-12T17:29:43;18.60;84.40
32787;DHT22;19139;49.372;8.580;2023-03-12T17:32:10;18.60;84.60
32787;DHT22;19139;49.372;8.580;2023-03-12T17:34:36;18.60;84.80
32787;DHT22;19139;49.372;8.580;2023-03-12T17:37:03;18.60;84.90
32787;DHT22;19139;49.372;8.580;2023-03-12T17:39:30;18.60;85.00
32787;DHT22;19139;49.372;8.580;2023-03-12T17:41:56;18.70;85.20
32787;DHT22;19139;49.372;8.580;2023-03-12T17:44:23;18.70;85.40
32787;DHT22;19139;49.372;8.580;2023-03-12T17:46:50;18.70;85.60
32787;DHT22;19139;49.372;8.580;2023-03-12T17:49:25;18.70;85.60